• Join FlightAware (Why Join?)
  • Login
  • US Flag 
12:08AM EDT


 

Airport Tracker/Info


-or-


 

Live Flight TrackerFlight Track Log ✈ SLI2632 ✈ 28-Apr-2012 ✈ MMMX / MEX - MMAS / AGU

Flight Track Log - Related Links

Times and Time Zones

All times are in EDT time to prevent confusion due to time zone crossing. See the SLI2632 flight status page for this flight to view local times or setup timezone preferences in your user account.

Time Position Orientation Groundspeed Altitude Reporting Facility
EDT Latitude Longitude Course Direction KTS MPH feet Rate Location/Type
10:53AM 19.4488 -99.0895 307° West  Level Estimated
10:54AM 19.4987 -99.1590 307° West  Level Estimated
10:55AM 19.5485 -99.2285 307° West  Level Estimated
10:56AM 19.5984 -99.2980 307° West  Level Estimated
10:57AM 19.6482 -99.3677 307° West  Level Estimated
10:58AM 19.6980 -99.4373 307° West  Level Estimated
10:59AM 19.7477 -99.5070 307° West  Level Estimated
11:00AM 19.7975 -99.5768 307° West  Level Estimated
11:01AM 19.8472 -99.6466 307° West  Level Estimated
11:02AM 19.8969 -99.7164 307° West  Level Estimated
11:03AM 19.9465 -99.7862 307° West  Level Estimated
11:04AM 19.9961 -99.8562 307° West  Level Estimated
11:05AM 20.0457 -99.9261 307° West  Level Estimated
11:06AM 20.0953 -99.9961 307° West  Level Estimated
11:07AM 20.1448 -100.0662 307° West  Level Estimated
11:08AM 20.1943 -100.1363 307° West  Level Estimated
11:09AM 20.2438 -100.2064 307° West  Level Estimated
11:10AM 20.2933 -100.2766 307° West  Level Estimated
11:11AM 20.3427 -100.3468 307° West  Level Estimated
11:12AM 20.3921 -100.4171 307° West  Level Estimated
11:13AM 20.4415 -100.4874 307° West  Level Estimated
11:14AM 20.4909 -100.5578 307° West  Level Estimated
11:15AM 20.5402 -100.6282 307° West  Level Estimated
11:16AM 20.5895 -100.6986 307° West  Level Estimated
11:17AM 20.6387 -100.7691 307° West  Level Estimated
11:18AM 20.6880 -100.8397 307° West  Level Estimated
11:19AM 20.7372 -100.9103 307° West  Level Estimated
11:20AM 20.7863 -100.9809 307° West  Level Estimated
11:21AM 20.8355 -101.0516 307° West  Level Estimated
11:22AM 20.8846 -101.1223 307° West  Level Estimated
11:23AM 20.9337 -101.1931 307° West  Level Estimated
11:24AM 20.9827 -101.2639 307° West  Level Estimated
11:25AM 21.0318 -101.3348 307° West  Level Estimated
11:26AM 21.0808 -101.4057 307° West  Level Estimated
11:27AM 21.1297 -101.4767 306° West  Level Estimated
11:28AM 21.1787 -101.5477 306° West  Level Estimated
11:29AM 21.2276 -101.6188 306° West  Level Estimated
11:30AM 21.2765 -101.6899 306° West  Level Estimated
11:31AM 21.3253 -101.7610 306° West  Level Estimated
11:32AM 21.3741 -101.8322 306° West  Level Estimated
11:33AM 21.4229 -101.9035 306° West  Level Estimated
11:34AM 21.4717 -101.9747 306° West  Level Estimated
11:35AM 21.5204 -102.0461 306° West  Level Estimated
11:36AM 21.5691 -102.1175 306° West  Level Estimated
11:37AM 21.6178 -102.1889 306° West  Level Estimated
11:38AM 21.6664 -102.2604 306° West  Level Estimated